createdAt,value
2023-01-29T00:01:35.188Z,13.82
2023-01-29T00:04:03.107Z,13.25
2023-01-29T00:06:30.939Z,12.70
2023-01-29T00:09:00.130Z,13.63
2023-01-29T00:11:28.099Z,13.50
2023-01-29T00:13:56.002Z,12.52
2023-01-29T00:16:23.972Z,12.98
2023-01-29T00:18:51.828Z,12.93
2023-01-29T00:21:21.989Z,12.15
2023-01-29T00:23:50.411Z,12.45
2023-01-29T00:26:19.567Z,13.35
2023-01-29T00:28:47.444Z,13.32
2023-01-29T00:31:17.094Z,13.00
2023-01-29T00:33:45.280Z,12.88
2023-01-29T00:36:15.593Z,11.93
2023-01-29T00:38:43.815Z,11.80
2023-01-29T00:41:36.391Z,13.02
2023-01-29T00:44:24.864Z,12.98
2023-01-29T00:46:52.865Z,12.68
2023-01-29T00:49:20.777Z,12.00
2023-01-29T00:52:09.479Z,12.43
2023-01-29T00:54:37.648Z,12.65
2023-01-29T00:57:05.607Z,12.52
2023-01-29T00:59:34.792Z,12.20
2023-01-29T01:02:20.170Z,13.50
2023-01-29T01:04:48.057Z,12.02
2023-01-29T01:07:15.942Z,12.65
2023-01-29T01:10:01.354Z,11.57
2023-01-29T01:12:30.106Z,12.38
2023-01-29T01:14:59.587Z,12.32
2023-01-29T01:17:27.512Z,13.07
2023-01-29T01:19:55.337Z,12.02
2023-01-29T01:22:23.142Z,12.73
2023-01-29T01:24:51.288Z,12.15
2023-01-29T01:27:19.576Z,11.75
2023-01-29T01:29:47.583Z,11.77
2023-01-29T01:32:16.836Z,12.20
2023-01-29T01:34:45.800Z,11.90
2023-01-29T01:37:13.712Z,11.50
2023-01-29T01:39:41.601Z,10.88
2023-01-29T01:42:14.196Z,11.77
2023-01-29T01:44:57.066Z,12.18
2023-01-29T01:47:31.765Z,11.77
2023-01-29T01:50:04.108Z,11.80
2023-01-29T01:52:33.251Z,11.57
2023-01-29T01:55:01.867Z,10.82
2023-01-29T01:57:31.818Z,10.88
2023-01-29T02:00:10.053Z,10.75
2023-01-29T02:02:57.968Z,11.05
2023-01-29T02:05:44.548Z,11.23
2023-01-29T02:08:30.709Z,10.90
2023-01-29T02:10:59.406Z,12.52
2023-01-29T02:13:28.053Z,10.38
2023-01-29T02:15:55.872Z,11.27
2023-01-29T02:18:25.125Z,10.68
2023-01-29T02:21:15.957Z,11.20
2023-01-29T02:24:16.186Z,10.60
2023-01-29T02:26:59.694Z,9.55
2023-01-29T02:29:36.317Z,9.50
2023-01-29T02:32:17.158Z,11.52
2023-01-29T02:35:12.376Z,10.13
2023-01-29T02:37:46.479Z,9.63
2023-01-29T02:40:25.579Z,10.20
2023-01-29T02:43:02.932Z,10.77
2023-01-29T02:45:36.300Z,9.55
2023-01-29T02:48:04.519Z,10.35
2023-01-29T02:50:38.277Z,10.32
2023-01-29T02:53:11.246Z,9.15
2023-01-29T02:55:43.611Z,9.82
2023-01-29T02:58:16.189Z,9.77
2023-01-29T03:00:47.868Z,9.93
2023-01-29T03:03:19.279Z,9.98
2023-01-29T03:05:56.982Z,10.38
2023-01-29T03:08:37.266Z,9.80
2023-01-29T03:11:08.213Z,9.65
2023-01-29T03:13:40.942Z,9.05
2023-01-29T03:16:16.083Z,8.68
2023-01-29T03:18:50.744Z,9.07
2023-01-29T03:21:49.515Z,10.15
2023-01-29T03:24:37.880Z,8.52
2023-01-29T03:27:27.830Z,9.75
2023-01-29T03:30:16.070Z,9.38
2023-01-29T03:32:47.578Z,9.25
2023-01-29T03:35:20.857Z,8.57
2023-01-29T03:37:49.820Z,8.93
2023-01-29T03:40:18.267Z,8.77
2023-01-29T03:42:57.146Z,10.00
2023-01-29T03:45:34.039Z,9.77
2023-01-29T03:48:10.383Z,9.60
2023-01-29T03:50:48.836Z,10.23
2023-01-29T03:53:24.980Z,9.98
2023-01-29T03:56:01.168Z,10.05
2023-01-29T03:58:38.032Z,11.20
2023-01-29T04:01:11.968Z,9.75
2023-01-29T04:03:44.384Z,8.85
2023-01-29T04:06:17.944Z,8.68
2023-01-29T04:08:50.277Z,8.98
2023-01-29T04:11:21.978Z,9.43
2023-01-29T04:13:50.907Z,9.20
2023-01-29T04:16:24.915Z,9.05
2023-01-29T04:18:54.890Z,9.02
2023-01-29T04:21:23.225Z,9.60
2023-01-29T04:23:51.049Z,10.02
2023-01-29T04:26:43.459Z,9.50
2023-01-29T04:29:30.255Z,8.98
2023-01-29T04:32:08.650Z,10.60
2023-01-29T04:34:51.430Z,9.75
2023-01-29T04:37:30.450Z,10.05
2023-01-29T04:40:05.186Z,9.80
2023-01-29T04:42:40.971Z,10.05
2023-01-29T04:45:17.219Z,10.55
2023-01-29T04:47:51.809Z,9.60
2023-01-29T04:50:27.818Z,9.93
2023-01-29T04:53:01.379Z,9.77
2023-01-29T04:55:36.679Z,10.23
2023-01-29T04:58:10.201Z,10.18
2023-01-29T05:00:41.877Z,11.40
2023-01-29T05:03:11.843Z,10.57
2023-01-29T05:05:43.659Z,9.88
2023-01-29T05:08:14.856Z,10.38
2023-01-29T05:10:43.478Z,9.77
2023-01-29T05:13:14.445Z,11.13
2023-01-29T05:15:47.467Z,11.10
2023-01-29T05:18:15.465Z,10.60
2023-01-29T05:20:45.441Z,9.80
2023-01-29T05:23:17.727Z,10.98
2023-01-29T05:25:46.747Z,11.45
2023-01-29T05:28:17.194Z,9.85
2023-01-29T05:30:46.713Z,10.40
2023-01-29T05:33:17.172Z,10.40
2023-01-29T05:35:46.606Z,10.40
2023-01-29T05:38:14.925Z,10.52
2023-01-29T05:40:43.198Z,10.45
2023-01-29T05:43:16.878Z,9.73
2023-01-29T05:45:44.986Z,10.70
2023-01-29T05:48:12.828Z,11.18
2023-01-29T05:50:40.623Z,10.68
2023-01-29T05:53:10.344Z,11.40
2023-01-29T05:55:38.198Z,10.52
2023-01-29T05:58:06.180Z,10.93
2023-01-29T06:00:34.065Z,10.98
2023-01-29T06:03:01.918Z,9.27
2023-01-29T06:05:29.870Z,9.05
2023-01-29T06:07:57.735Z,8.40
2023-01-29T06:10:26.898Z,9.70
2023-01-29T06:12:54.716Z,10.32
2023-01-29T06:15:22.556Z,9.40
2023-01-29T06:17:50.359Z,8.82
2023-01-29T06:20:18.885Z,9.02
2023-01-29T06:22:47.205Z,9.15
2023-01-29T06:25:15.189Z,8.90
2023-01-29T06:27:44.339Z,9.75
2023-01-29T06:30:13.300Z,9.35
2023-01-29T06:32:41.183Z,10.63
2023-01-29T06:35:10.763Z,9.65
2023-01-29T06:37:38.652Z,9.48
2023-01-29T06:40:07.653Z,9.48
2023-01-29T06:42:36.408Z,8.93
2023-01-29T06:45:06.494Z,10.02
2023-01-29T06:47:34.343Z,9.68
2023-01-29T06:50:02.236Z,10.00
2023-01-29T06:52:30.071Z,10.25
2023-01-29T06:54:57.945Z,9.70
2023-01-29T06:57:25.790Z,10.80
2023-01-29T06:59:53.614Z,10.15
2023-01-29T07:02:22.821Z,10.27
2023-01-29T07:04:50.816Z,10.63
2023-01-29T07:07:18.664Z,10.18
2023-01-29T07:09:46.551Z,10.77
2023-01-29T07:12:14.361Z,11.32
2023-01-29T07:14:42.203Z,11.65
2023-01-29T07:17:10.095Z,9.95
2023-01-29T07:19:39.376Z,9.90
2023-01-29T07:22:07.210Z,10.13
2023-01-29T07:24:35.082Z,10.82
2023-01-29T07:27:02.926Z,10.48
2023-01-29T07:29:30.774Z,10.20
2023-01-29T07:31:58.674Z,10.77
2023-01-29T07:34:26.699Z,10.23
2023-01-29T07:36:56.796Z,9.70
2023-01-29T07:39:24.760Z,10.18
2023-01-29T07:41:52.611Z,9.50
2023-01-29T07:44:20.552Z,10.00
2023-01-29T07:46:48.379Z,9.27
2023-01-29T07:49:16.272Z,10.48
2023-01-29T07:51:44.252Z,9.65
2023-01-29T07:54:13.428Z,10.05
2023-01-29T07:56:41.265Z,10.05
2023-01-29T07:59:09.101Z,10.35
2023-01-29T08:01:36.965Z,10.43
2023-01-29T08:04:04.918Z,11.00
2023-01-29T08:06:36.440Z,9.98
2023-01-29T08:09:04.324Z,10.32
2023-01-29T08:11:33.470Z,11.45
2023-01-29T08:14:01.407Z,11.05
2023-01-29T08:16:29.376Z,11.63
2023-01-29T08:18:57.203Z,10.82
2023-01-29T08:21:25.053Z,10.38
2023-01-29T08:23:52.882Z,10.52
2023-01-29T08:26:20.710Z,10.32
2023-01-29T08:28:49.896Z,11.10
2023-01-29T08:31:20.431Z,11.13
2023-01-29T08:33:48.335Z,10.50
2023-01-29T08:36:16.526Z,9.85
2023-01-29T08:38:44.380Z,10.10
2023-01-29T08:41:12.191Z,9.95
2023-01-29T08:43:40.594Z,10.77
2023-01-29T08:46:10.009Z,9.57
2023-01-29T08:48:37.893Z,10.05
2023-01-29T08:51:05.942Z,10.50
2023-01-29T08:53:34.076Z,9.80
2023-01-29T08:56:01.951Z,9.73
2023-01-29T08:58:29.817Z,11.18
2023-01-29T09:00:57.930Z,10.82
2023-01-29T09:03:27.115Z,9.70
2023-01-29T09:05:54.983Z,11.77
2023-01-29T09:08:22.873Z,9.85
2023-01-29T09:10:50.692Z,10.95
2023-01-29T09:13:18.548Z,9.80
2023-01-29T09:15:46.521Z,12.18
2023-01-29T09:18:14.384Z,10.27
2023-01-29T09:20:43.609Z,10.07
2023-01-29T09:23:12.789Z,10.32
2023-01-29T09:25:40.623Z,11.38
2023-01-29T09:28:08.484Z,10.70
2023-01-29T09:30:38.250Z,11.82
2023-01-29T09:33:06.544Z,10.77
2023-01-29T09:35:35.394Z,10.82
2023-01-29T09:38:04.699Z,11.25
2023-01-29T09:40:38.803Z,11.23
2023-01-29T09:43:12.345Z,12.85
2023-01-29T09:45:45.680Z,10.93
2023-01-29T09:48:14.350Z,11.35
2023-01-29T09:50:45.501Z,11.43
2023-01-29T09:53:20.990Z,11.07
2023-01-29T09:55:53.822Z,10.68
2023-01-29T09:58:26.227Z,11.30
2023-01-29T10:01:03.934Z,11.68
2023-01-29T10:03:53.353Z,11.93
2023-01-29T10:06:29.724Z,10.55
2023-01-29T10:09:30.526Z,10.73
2023-01-29T10:12:12.334Z,9.18
2023-01-29T10:14:47.883Z,9.48
2023-01-29T10:17:34.046Z,9.15
2023-01-29T10:20:24.153Z,9.25
2023-01-29T10:23:03.232Z,9.35
2023-01-29T10:25:37.672Z,10.30
2023-01-29T10:28:17.421Z,9.70
2023-01-29T10:30:50.040Z,10.50
2023-01-29T10:33:25.977Z,10.23
2023-01-29T10:35:57.852Z,10.85
2023-01-29T10:38:45.291Z,11.05
2023-01-29T10:41:28.104Z,10.80
2023-01-29T10:44:07.888Z,9.88
2023-01-29T10:46:54.518Z,10.10
2023-01-29T10:49:36.765Z,9.95
2023-01-29T10:52:18.234Z,9.10
2023-01-29T10:55:00.199Z,10.73
2023-01-29T10:57:53.423Z,8.90
2023-01-29T11:00:24.761Z,9.70
2023-01-29T11:02:53.875Z,10.02
2023-01-29T11:05:27.068Z,10.05
2023-01-29T11:08:04.056Z,10.52
2023-01-29T11:10:37.592Z,9.05
2023-01-29T11:13:07.140Z,9.25
2023-01-29T11:15:35.624Z,9.90
2023-01-29T11:18:10.616Z,9.85
2023-01-29T11:20:38.527Z,9.30
2023-01-29T11:23:07.651Z,9.57
2023-01-29T11:25:35.835Z,10.00
2023-01-29T11:28:05.310Z,10.27
2023-01-29T11:30:37.077Z,11.88
2023-01-29T11:33:11.035Z,11.93
2023-01-29T11:35:39.053Z,12.00
2023-01-29T11:38:19.989Z,11.35
2023-01-29T11:40:48.177Z,11.60
2023-01-29T11:43:31.522Z,11.82
2023-01-29T11:46:03.541Z,11.25
2023-01-29T11:48:40.645Z,11.30
2023-01-29T11:51:11.259Z,11.82
2023-01-29T11:53:41.951Z,11.52
2023-01-29T11:56:23.718Z,11.40
2023-01-29T11:58:55.344Z,11.65
2023-01-29T12:01:33.515Z,22.67
2023-01-29T12:04:02.056Z,11.73
2023-01-29T12:06:36.213Z,11.32
2023-01-29T12:09:10.674Z,11.27
2023-01-29T12:11:38.512Z,12.38
2023-01-29T12:14:22.911Z,13.57
2023-01-29T12:16:57.681Z,11.52
2023-01-29T12:19:32.207Z,11.95
2023-01-29T12:22:05.728Z,10.95
2023-01-29T12:24:39.476Z,10.77
2023-01-29T12:27:13.933Z,10.60
2023-01-29T12:29:47.638Z,9.18
2023-01-29T12:32:28.903Z,10.57
2023-01-29T12:35:02.484Z,10.98
2023-01-29T12:37:39.827Z,10.60
2023-01-29T12:40:13.779Z,9.50
2023-01-29T12:42:45.440Z,9.50
2023-01-29T12:45:19.180Z,9.23
2023-01-29T12:47:51.130Z,9.50
2023-01-29T12:50:22.974Z,9.05
2023-01-29T12:52:55.524Z,10.45
2023-01-29T12:55:27.109Z,9.95
2023-01-29T12:57:58.944Z,9.38
2023-01-29T13:00:30.200Z,8.80
2023-01-29T13:03:05.155Z,9.15
2023-01-29T13:05:39.572Z,9.65
2023-01-29T13:08:10.863Z,8.70
2023-01-29T13:10:44.012Z,8.50
2023-01-29T13:13:17.882Z,8.70
2023-01-29T13:15:46.148Z,8.05
2023-01-29T13:18:33.032Z,7.60
2023-01-29T13:21:01.956Z,7.70
2023-01-29T13:23:34.860Z,7.40
2023-01-29T13:26:03.655Z,8.32
2023-01-29T13:28:32.121Z,8.20
2023-01-29T13:31:24.153Z,8.38
2023-01-29T13:34:00.983Z,8.95
2023-01-29T13:36:31.303Z,8.88
2023-01-29T13:39:05.093Z,8.88
2023-01-29T13:41:35.584Z,9.50
2023-01-29T13:44:05.729Z,9.75
2023-01-29T13:46:33.952Z,9.70
2023-01-29T13:49:04.967Z,9.13
2023-01-29T13:51:37.419Z,9.93
2023-01-29T13:54:09.794Z,9.65
2023-01-29T13:56:48.932Z,10.60
2023-01-29T13:59:24.849Z,11.02
2023-01-29T14:02:20.092Z,9.98
2023-01-29T14:04:49.326Z,11.73
2023-01-29T14:07:51.302Z,10.73
2023-01-29T14:10:21.848Z,10.88
2023-01-29T14:12:52.499Z,10.38
2023-01-29T14:15:32.524Z,10.63
2023-01-29T14:18:14.726Z,10.65
2023-01-29T14:21:03.463Z,10.98
2023-01-29T14:26:06.643Z,13.45
2023-01-29T14:28:36.038Z,11.77
2023-01-29T14:31:04.870Z,11.85
2023-01-29T14:33:37.666Z,10.73
2023-01-29T14:36:11.802Z,10.98
2023-01-29T14:38:41.086Z,11.90
2023-01-29T14:41:17.290Z,12.10
2023-01-29T14:43:45.212Z,11.70
2023-01-29T14:46:44.238Z,11.20
2023-01-29T14:49:12.300Z,12.30
2023-01-29T14:51:45.416Z,12.68
2023-01-29T14:54:24.061Z,12.60
2023-01-29T14:56:59.367Z,12.30
2023-01-29T14:59:33.765Z,11.45
2023-01-29T15:02:06.252Z,12.57
2023-01-29T15:04:40.202Z,11.30
2023-01-29T15:07:26.396Z,12.43
2023-01-29T15:10:13.488Z,11.85
2023-01-29T15:12:50.176Z,11.85
2023-01-29T15:15:22.505Z,11.60
2023-01-29T15:17:56.763Z,12.52
2023-01-29T15:20:30.704Z,11.05
2023-01-29T15:23:00.042Z,11.85
2023-01-29T15:25:33.748Z,11.88
2023-01-29T15:28:02.164Z,12.63
2023-01-29T15:30:34.839Z,11.50
2023-01-29T15:33:03.999Z,11.68
2023-01-29T15:35:36.043Z,12.55
2023-01-29T15:38:07.150Z,12.82
2023-01-29T15:40:35.894Z,11.98
2023-01-29T15:43:03.768Z,11.85
2023-01-29T15:45:33.489Z,12.13
2023-01-29T15:48:06.881Z,12.18
2023-01-29T15:50:40.497Z,13.52
2023-01-29T15:53:14.749Z,13.77
2023-01-29T15:55:43.483Z,13.07
2023-01-29T15:58:16.558Z,13.07
2023-01-29T16:00:50.999Z,13.95
2023-01-29T16:03:24.082Z,12.98
2023-01-29T16:05:53.538Z,12.82
2023-01-29T16:08:24.707Z,12.95
2023-01-29T16:10:56.332Z,12.50
2023-01-29T16:13:28.615Z,14.93
2023-01-29T16:15:59.075Z,13.27
2023-01-29T16:18:30.926Z,13.90
2023-01-29T16:21:01.714Z,14.02
2023-01-29T16:23:34.841Z,14.60
2023-01-29T16:26:06.202Z,14.18
2023-01-29T16:28:34.303Z,14.13
2023-01-29T16:31:04.319Z,13.50
2023-01-29T16:33:36.517Z,16.15
2023-01-29T16:36:06.430Z,16.38
2023-01-29T16:38:36.723Z,15.65
2023-01-29T16:44:03.268Z,14.93
2023-01-29T16:49:46.758Z,15.13
2023-01-29T16:52:20.795Z,15.73
2023-01-29T16:54:50.128Z,16.33
2023-01-29T16:57:22.529Z,15.50
2023-01-29T16:59:54.050Z,15.40
2023-01-29T17:02:26.658Z,16.40
2023-01-29T17:04:58.687Z,14.98
2023-01-29T17:07:27.308Z,16.15
2023-01-29T17:10:00.494Z,16.60
2023-01-29T17:12:30.263Z,16.58
2023-01-29T17:14:59.987Z,16.20
2023-01-29T17:17:32.619Z,17.40
2023-01-29T17:20:13.907Z,19.30
2023-01-29T17:22:41.819Z,18.27
2023-01-29T17:25:15.305Z,17.92
2023-01-29T17:27:45.295Z,19.15
2023-01-29T17:30:15.618Z,18.08
2023-01-29T17:32:45.193Z,17.35
2023-01-29T17:35:16.558Z,18.77
2023-01-29T17:37:45.256Z,19.58
2023-01-29T17:40:29.481Z,20.63
2023-01-29T17:42:57.283Z,25.55
2023-01-29T17:45:25.239Z,21.23
2023-01-29T17:47:53.158Z,19.83
2023-01-29T17:50:24.840Z,18.77
2023-01-29T17:52:53.691Z,19.58
2023-01-29T17:55:23.173Z,20.50
2023-01-29T17:57:50.981Z,18.95
2023-01-29T18:00:21.439Z,18.67
2023-01-29T18:02:49.563Z,20.25
2023-01-29T18:05:18.922Z,23.35
2023-01-29T18:07:47.976Z,19.15
2023-01-29T18:10:19.526Z,19.42
2023-01-29T18:12:48.949Z,19.83
2023-01-29T18:15:17.195Z,20.27
2023-01-29T18:17:45.471Z,21.25
2023-01-29T18:20:25.638Z,19.92
2023-01-29T18:22:53.698Z,16.08
2023-01-29T18:25:23.090Z,16.25
2023-01-29T18:27:53.882Z,15.43
2023-01-29T18:30:21.818Z,12.93
2023-01-29T18:32:50.224Z,16.13
2023-01-29T18:35:18.573Z,15.23
2023-01-29T18:37:47.490Z,16.38
2023-01-29T18:40:17.195Z,12.75
2023-01-29T18:42:45.733Z,12.27
2023-01-29T18:45:16.769Z,13.98
2023-01-29T18:47:45.909Z,12.73
2023-01-29T18:50:13.828Z,12.57
2023-01-29T18:52:41.773Z,13.15
2023-01-29T18:55:10.656Z,13.45
2023-01-29T18:58:28.141Z,13.43
2023-01-29T19:00:28.576Z,13.27
2023-01-29T19:02:56.426Z,12.30
2023-01-29T19:05:25.649Z,12.07
2023-01-29T19:07:53.526Z,12.88
2023-01-29T19:10:21.383Z,12.20
2023-01-29T19:12:49.229Z,11.63
2023-01-29T19:15:20.520Z,13.18
2023-01-29T19:17:49.718Z,12.13
2023-01-29T19:20:17.859Z,12.07
2023-01-29T19:22:45.735Z,12.00
2023-01-29T19:25:13.719Z,13.85
2023-01-29T19:27:41.649Z,19.63
2023-01-29T19:30:12.729Z,22.77
2023-01-29T19:32:40.876Z,25.83
2023-01-29T19:35:10.140Z,21.30
2023-01-29T19:37:37.979Z,19.27
2023-01-29T19:40:08.101Z,16.63
2023-01-29T19:42:37.326Z,16.08
2023-01-29T19:45:05.739Z,16.17
2023-01-29T19:47:33.740Z,16.15
2023-01-29T19:50:01.585Z,17.65
2023-01-29T19:52:50.388Z,16.17
2023-01-29T19:55:20.417Z,17.50
2023-01-29T19:57:49.054Z,16.45
2023-01-29T20:00:18.328Z,16.08
2023-01-29T20:02:46.342Z,14.95
2023-01-29T20:05:17.127Z,14.02
2023-01-29T20:07:46.641Z,14.40
2023-01-29T20:10:17.399Z,13.77
2023-01-29T20:12:46.007Z,13.35
2023-01-29T20:15:14.447Z,13.18
2023-01-29T20:17:43.568Z,13.27
2023-01-29T20:20:12.239Z,14.15
2023-01-29T20:22:40.072Z,14.93
2023-01-29T20:25:13.417Z,13.75
2023-01-29T20:27:41.474Z,14.48
2023-01-29T20:30:10.699Z,14.25
2023-01-29T20:32:38.552Z,15.48
2023-01-29T20:35:07.343Z,13.00
2023-01-29T20:37:35.136Z,14.27
2023-01-29T20:40:02.986Z,13.82
2023-01-29T20:42:32.150Z,14.10
2023-01-29T20:44:59.988Z,15.57
2023-01-29T20:47:27.982Z,15.35
2023-01-29T20:49:55.791Z,16.85
2023-01-29T20:52:23.709Z,16.23
2023-01-29T20:54:51.583Z,15.75
2023-01-29T20:57:19.427Z,16.30
2023-01-29T20:59:48.618Z,16.42
2023-01-29T21:02:17.051Z,17.17
2023-01-29T21:04:44.964Z,15.90
2023-01-29T21:07:12.862Z,15.60
2023-01-29T21:09:40.811Z,17.23
2023-01-29T21:12:08.767Z,17.35
2023-01-29T21:14:36.656Z,17.98
2023-01-29T21:17:06.021Z,17.23
2023-01-29T21:19:33.949Z,15.48
2023-01-29T21:22:01.756Z,16.50
2023-01-29T21:24:29.646Z,17.65
2023-01-29T21:26:57.485Z,17.05
2023-01-29T21:29:25.477Z,16.45
2023-01-29T21:31:53.369Z,16.17
2023-01-29T21:34:22.582Z,16.02
2023-01-29T21:36:50.406Z,16.55
2023-01-29T21:39:20.497Z,17.27
2023-01-29T21:42:07.841Z,17.88
2023-01-29T21:44:36.301Z,15.98
2023-01-29T21:47:12.145Z,16.70
2023-01-29T21:49:42.722Z,15.77
2023-01-29T21:52:12.544Z,16.67
2023-01-29T21:54:40.868Z,15.50
2023-01-29T21:57:14.831Z,16.95
2023-01-29T21:59:43.039Z,14.73
2023-01-29T22:02:15.004Z,16.80
2023-01-29T22:04:44.322Z,16.88
2023-01-29T22:07:13.226Z,15.35
2023-01-29T22:09:41.561Z,16.70
2023-01-29T22:12:10.035Z,16.48
2023-01-29T22:14:37.909Z,16.20
2023-01-29T22:17:06.298Z,16.05
2023-01-29T22:19:34.199Z,14.77
2023-01-29T22:22:03.365Z,15.85
2023-01-29T22:24:31.423Z,17.73
2023-01-29T22:26:59.232Z,17.23
2023-01-29T22:29:27.128Z,15.50
2023-01-29T22:31:56.447Z,16.65
2023-01-29T22:34:24.377Z,16.05
2023-01-29T22:36:52.666Z,15.65
2023-01-29T22:39:21.912Z,17.05
2023-01-29T22:41:49.766Z,17.42
2023-01-29T22:44:17.651Z,16.63
2023-01-29T22:46:45.889Z,17.75
2023-01-29T22:49:13.858Z,18.45
2023-01-29T22:51:41.678Z,17.70
2023-01-29T22:54:09.553Z,18.52
2023-01-29T22:56:38.715Z,18.33
2023-01-29T22:59:06.578Z,15.45
2023-01-29T23:01:34.618Z,15.85
2023-01-29T23:04:02.626Z,16.85
2023-01-29T23:06:30.470Z,18.85
2023-01-29T23:08:58.319Z,16.98
2023-01-29T23:11:26.147Z,16.60
2023-01-29T23:13:56.346Z,17.27
2023-01-29T23:16:27.973Z,15.73
2023-01-29T23:18:56.818Z,16.05
2023-01-29T23:21:25.887Z,17.63
2023-01-29T23:23:55.296Z,16.15
2023-01-29T23:26:41.082Z,15.52
2023-01-29T23:29:10.585Z,17.58
2023-01-29T23:31:38.575Z,17.60
2023-01-29T23:34:06.489Z,17.98
2023-01-29T23:36:34.306Z,17.73
2023-01-29T23:39:02.152Z,17.13
2023-01-29T23:41:30.009Z,16.80
2023-01-29T23:43:57.851Z,18.30
2023-01-29T23:46:27.436Z,16.48
2023-01-29T23:48:55.380Z,16.92
2023-01-29T23:51:23.324Z,17.88
2023-01-29T23:53:51.167Z,18.63
2023-01-29T23:56:19.123Z,16.17
2023-01-29T23:58:46.973Z,17.13
